sensor_id;sensor_type;location;lat;lon;timestamp;temperature;humidity
19908;DHT22;10116;53.112;7.356;2022-08-19T00:01:46;30.10;99.90
19908;DHT22;10116;53.112;7.356;2022-08-19T00:04:14;30.10;99.90
19908;DHT22;10116;53.112;7.356;2022-08-19T00:06:41;30.10;99.90
19908;DHT22;10116;53.112;7.356;2022-08-19T00:09:09;30.00;99.90
19908;DHT22;10116;53.112;7.356;2022-08-19T00:11:36;30.00;99.90
19908;DHT22;10116;53.112;7.356;2022-08-19T00:14:04;30.00;99.90
19908;DHT22;10116;53.112;7.356;2022-08-19T00:16:30;30.00;99.90
19908;DHT22;10116;53.112;7.356;2022-08-19T00:18:56;30.00;99.90
19908;DHT22;10116;53.112;7.356;2022-08-19T00:21:22;30.00;99.90
19908;DHT22;10116;53.112;7.356;2022-08-19T00:23:48;30.00;99.90
19908;DHT22;10116;53.112;7.356;2022-08-19T00:26:14;30.00;99.90
19908;DHT22;10116;53.112;7.356;2022-08-19T00:28:40;30.00;99.90
19908;DHT22;10116;53.112;7.356;2022-08-19T00:31:08;30.00;99.90
19908;DHT22;10116;53.112;7.356;2022-08-19T00:33:34;30.00;99.90
19908;DHT22;10116;53.112;7.356;2022-08-19T00:36:01;30.00;99.90
19908;DHT22;10116;53.112;7.356;2022-08-19T00:38:30;29.90;99.90
19908;DHT22;10116;53.112;7.356;2022-08-19T00:40:55;29.90;99.90
19908;DHT22;10116;53.112;7.356;2022-08-19T00:43:23;30.00;99.90
19908;DHT22;10116;53.112;7.356;2022-08-19T00:45:50;29.90;99.90
19908;DHT22;10116;53.112;7.356;2022-08-19T00:48:17;29.90;99.90
19908;DHT22;10116;53.112;7.356;2022-08-19T00:50:44;29.90;99.90
19908;DHT22;10116;53.112;7.356;2022-08-19T00:53:16;29.90;99.90
19908;DHT22;10116;53.112;7.356;2022-08-19T00:55:46;29.90;99.90
19908;DHT22;10116;53.112;7.356;2022-08-19T00:58:15;29.90;99.90
19908;DHT22;10116;53.112;7.356;2022-08-19T01:00:43;29.90;99.90
19908;DHT22;10116;53.112;7.356;2022-08-19T01:03:11;29.90;99.90
19908;DHT22;10116;53.112;7.356;2022-08-19T01:05:39;29.90;99.90
19908;DHT22;10116;53.112;7.356;2022-08-19T01:08:07;29.90;99.90
19908;DHT22;10116;53.112;7.356;2022-08-19T01:10:38;29.90;99.90
19908;DHT22;10116;53.112;7.356;2022-08-19T01:13:04;29.90;99.90
19908;DHT22;10116;53.112;7.356;2022-08-19T01:15:34;29.90;99.90
19908;DHT22;10116;53.112;7.356;2022-08-19T01:18:06;29.80;99.90
19908;DHT22;10116;53.112;7.356;2022-08-19T01:20:32;29.80;99.90
19908;DHT22;10116;53.112;7.356;2022-08-19T01:23:00;29.80;99.90
19908;DHT22;10116;53.112;7.356;2022-08-19T01:25:44;29.80;99.90
19908;DHT22;10116;53.112;7.356;2022-08-19T01:28:19;29.80;99.90
19908;DHT22;10116;53.112;7.356;2022-08-19T01:30:46;29.80;99.90
19908;DHT22;10116;53.112;7.356;2022-08-19T01:33:12;29.80;99.90
19908;DHT22;10116;53.112;7.356;2022-08-19T01:35:39;29.70;99.90
19908;DHT22;10116;53.112;7.356;2022-08-19T01:38:07;29.70;99.90
19908;DHT22;10116;53.112;7.356;2022-08-19T01:40:35;29.80;99.90
19908;DHT22;10116;53.112;7.356;2022-08-19T01:43:02;29.70;99.90
19908;DHT22;10116;53.112;7.356;2022-08-19T01:45:30;29.70;99.90
19908;DHT22;10116;53.112;7.356;2022-08-19T01:47:58;29.70;99.90
19908;DHT22;10116;53.112;7.356;2022-08-19T01:50:24;29.70;99.90
19908;DHT22;10116;53.112;7.356;2022-08-19T01:52:50;29.70;99.90
19908;DHT22;10116;53.112;7.356;2022-08-19T01:55:19;29.60;99.90
19908;DHT22;10116;53.112;7.356;2022-08-19T01:57:50;29.70;99.90
19908;DHT22;10116;53.112;7.356;2022-08-19T02:00:19;29.60;99.90
19908;DHT22;10116;53.112;7.356;2022-08-19T02:02:45;29.60;99.90
19908;DHT22;10116;53.112;7.356;2022-08-19T02:05:11;29.70;99.90
19908;DHT22;10116;53.112;7.356;2022-08-19T02:07:38;29.60;99.90
19908;DHT22;10116;53.112;7.356;2022-08-19T02:10:07;29.60;99.90
19908;DHT22;10116;53.112;7.356;2022-08-19T02:12:33;29.60;99.90
19908;DHT22;10116;53.112;7.356;2022-08-19T02:14:59;29.60;99.90
19908;DHT22;10116;53.112;7.356;2022-08-19T02:17:26;29.60;99.90
19908;DHT22;10116;53.112;7.356;2022-08-19T02:19:54;29.60;99.90
19908;DHT22;10116;53.112;7.356;2022-08-19T02:22:21;29.60;99.90
19908;DHT22;10116;53.112;7.356;2022-08-19T02:24:46;29.50;99.90
19908;DHT22;10116;53.112;7.356;2022-08-19T02:27:14;29.60;99.90
19908;DHT22;10116;53.112;7.356;2022-08-19T02:29:40;29.60;99.90
19908;DHT22;10116;53.112;7.356;2022-08-19T02:32:06;29.60;99.90
19908;DHT22;10116;53.112;7.356;2022-08-19T02:34:33;29.50;99.90
19908;DHT22;10116;53.112;7.356;2022-08-19T02:36:59;29.50;99.90
19908;DHT22;10116;53.112;7.356;2022-08-19T02:39:24;29.50;99.90
19908;DHT22;10116;53.112;7.356;2022-08-19T02:41:50;29.50;99.90
19908;DHT22;10116;53.112;7.356;2022-08-19T02:44:17;29.50;99.90
19908;DHT22;10116;53.112;7.356;2022-08-19T02:46:46;29.50;99.90
19908;DHT22;10116;53.112;7.356;2022-08-19T02:49:12;29.50;99.90
19908;DHT22;10116;53.112;7.356;2022-08-19T02:51:41;29.50;99.90
19908;DHT22;10116;53.112;7.356;2022-08-19T02:54:08;29.50;99.90
19908;DHT22;10116;53.112;7.356;2022-08-19T02:56:36;29.40;99.90
19908;DHT22;10116;53.112;7.356;2022-08-19T02:59:03;29.50;99.90
19908;DHT22;10116;53.112;7.356;2022-08-19T03:01:35;29.50;99.90
19908;DHT22;10116;53.112;7.356;2022-08-19T03:04:03;29.50;99.90
19908;DHT22;10116;53.112;7.356;2022-08-19T03:06:30;29.50;99.90
19908;DHT22;10116;53.112;7.356;2022-08-19T03:08:56;29.40;99.90
19908;DHT22;10116;53.112;7.356;2022-08-19T03:11:25;29.40;99.90
19908;DHT22;10116;53.112;7.356;2022-08-19T03:13:51;29.40;99.90
19908;DHT22;10116;53.112;7.356;2022-08-19T03:16:19;29.40;99.90
19908;DHT22;10116;53.112;7.356;2022-08-19T03:18:45;29.40;99.90
19908;DHT22;10116;53.112;7.356;2022-08-19T03:21:19;29.40;99.90
19908;DHT22;10116;53.112;7.356;2022-08-19T03:23:45;29.30;99.90
19908;DHT22;10116;53.112;7.356;2022-08-19T03:26:12;29.30;99.90
19908;DHT22;10116;53.112;7.356;2022-08-19T03:28:41;29.30;99.90
19908;DHT22;10116;53.112;7.356;2022-08-19T03:31:12;29.30;99.90
19908;DHT22;10116;53.112;7.356;2022-08-19T03:33:40;29.40;99.90
19908;DHT22;10116;53.112;7.356;2022-08-19T03:36:11;29.40;99.90
19908;DHT22;10116;53.112;7.356;2022-08-19T03:38:40;29.50;99.90
19908;DHT22;10116;53.112;7.356;2022-08-19T03:41:08;29.50;99.90
19908;DHT22;10116;53.112;7.356;2022-08-19T03:43:36;29.60;99.90
19908;DHT22;10116;53.112;7.356;2022-08-19T03:46:05;29.60;99.90
19908;DHT22;10116;53.112;7.356;2022-08-19T03:48:32;29.60;99.90
19908;DHT22;10116;53.112;7.356;2022-08-19T03:50:58;29.60;99.90
19908;DHT22;10116;53.112;7.356;2022-08-19T03:53:26;29.70;99.90
19908;DHT22;10116;53.112;7.356;2022-08-19T03:55:52;29.70;99.90
19908;DHT22;10116;53.112;7.356;2022-08-19T03:58:19;29.70;99.90
19908;DHT22;10116;53.112;7.356;2022-08-19T04:00:45;29.60;99.90
19908;DHT22;10116;53.112;7.356;2022-08-19T04:03:10;29.60;99.90
19908;DHT22;10116;53.112;7.356;2022-08-19T04:05:36;29.60;99.90
19908;DHT22;10116;53.112;7.356;2022-08-19T04:08:04;29.60;99.90
19908;DHT22;10116;53.112;7.356;2022-08-19T04:10:35;29.70;99.90
19908;DHT22;10116;53.112;7.356;2022-08-19T04:13:00;29.60;99.90
19908;DHT22;10116;53.112;7.356;2022-08-19T04:15:26;29.60;99.90
19908;DHT22;10116;53.112;7.356;2022-08-19T04:17:54;29.70;99.90
19908;DHT22;10116;53.112;7.356;2022-08-19T04:20:20;29.60;99.90
19908;DHT22;10116;53.112;7.356;2022-08-19T04:22:45;29.60;99.90
19908;DHT22;10116;53.112;7.356;2022-08-19T04:25:11;29.60;99.90
19908;DHT22;10116;53.112;7.356;2022-08-19T04:27:37;29.60;99.90
19908;DHT22;10116;53.112;7.356;2022-08-19T04:30:03;29.60;99.90
19908;DHT22;10116;53.112;7.356;2022-08-19T04:32:29;29.60;99.90
19908;DHT22;10116;53.112;7.356;2022-08-19T04:34:57;29.60;99.90
19908;DHT22;10116;53.112;7.356;2022-08-19T04:37:24;29.60;99.90
19908;DHT22;10116;53.112;7.356;2022-08-19T04:39:51;29.60;99.90
19908;DHT22;10116;53.112;7.356;2022-08-19T04:42:35;29.60;99.90
19908;DHT22;10116;53.112;7.356;2022-08-19T04:45:06;29.50;99.90
19908;DHT22;10116;53.112;7.356;2022-08-19T04:47:32;29.50;99.90
19908;DHT22;10116;53.112;7.356;2022-08-19T04:49:58;29.50;99.90
19908;DHT22;10116;53.112;7.356;2022-08-19T04:52:24;29.50;99.90
19908;DHT22;10116;53.112;7.356;2022-08-19T04:54:50;29.40;99.90
19908;DHT22;10116;53.112;7.356;2022-08-19T04:57:15;29.40;99.90
19908;DHT22;10116;53.112;7.356;2022-08-19T04:59:41;29.40;99.90
19908;DHT22;10116;53.112;7.356;2022-08-19T05:02:08;29.40;99.90
19908;DHT22;10116;53.112;7.356;2022-08-19T05:04:35;29.40;99.90
19908;DHT22;10116;53.112;7.356;2022-08-19T05:07:03;29.40;99.90
19908;DHT22;10116;53.112;7.356;2022-08-19T05:09:30;29.40;99.90
19908;DHT22;10116;53.112;7.356;2022-08-19T05:11:56;29.40;99.90
19908;DHT22;10116;53.112;7.356;2022-08-19T05:14:21;29.40;99.90
19908;DHT22;10116;53.112;7.356;2022-08-19T05:16:48;29.30;99.90
19908;DHT22;10116;53.112;7.356;2022-08-19T05:19:14;29.30;99.90
19908;DHT22;10116;53.112;7.356;2022-08-19T05:21:59;29.40;99.90
19908;DHT22;10116;53.112;7.356;2022-08-19T05:24:44;29.50;99.90
19908;DHT22;10116;53.112;7.356;2022-08-19T05:27:09;29.50;99.90
19908;DHT22;10116;53.112;7.356;2022-08-19T05:29:35;29.60;99.90
19908;DHT22;10116;53.112;7.356;2022-08-19T05:32:03;29.60;99.90
19908;DHT22;10116;53.112;7.356;2022-08-19T05:34:30;29.70;99.90
19908;DHT22;10116;53.112;7.356;2022-08-19T05:36:58;29.70;99.90
19908;DHT22;10116;53.112;7.356;2022-08-19T05:39:26;29.70;99.90
19908;DHT22;10116;53.112;7.356;2022-08-19T05:41:55;29.70;99.90
19908;DHT22;10116;53.112;7.356;2022-08-19T05:44:26;29.70;99.90
19908;DHT22;10116;53.112;7.356;2022-08-19T05:46:53;29.70;99.90
19908;DHT22;10116;53.112;7.356;2022-08-19T05:49:21;29.70;99.90
19908;DHT22;10116;53.112;7.356;2022-08-19T05:51:47;29.70;99.90
19908;DHT22;10116;53.112;7.356;2022-08-19T05:54:13;29.70;99.90
19908;DHT22;10116;53.112;7.356;2022-08-19T05:56:40;29.70;99.90
19908;DHT22;10116;53.112;7.356;2022-08-19T05:59:08;29.80;99.90
19908;DHT22;10116;53.112;7.356;2022-08-19T06:01:38;29.80;99.90
19908;DHT22;10116;53.112;7.356;2022-08-19T06:04:05;29.80;99.90
19908;DHT22;10116;53.112;7.356;2022-08-19T06:06:32;29.80;99.90
19908;DHT22;10116;53.112;7.356;2022-08-19T06:09:03;29.80;99.90
19908;DHT22;10116;53.112;7.356;2022-08-19T06:11:42;29.80;99.90
19908;DHT22;10116;53.112;7.356;2022-08-19T06:14:11;29.80;99.90
19908;DHT22;10116;53.112;7.356;2022-08-19T06:16:39;29.80;99.90
19908;DHT22;10116;53.112;7.356;2022-08-19T06:19:09;29.80;99.90
19908;DHT22;10116;53.112;7.356;2022-08-19T06:21:37;29.80;99.90
19908;DHT22;10116;53.112;7.356;2022-08-19T06:24:06;29.80;99.90
19908;DHT22;10116;53.112;7.356;2022-08-19T06:26:34;29.80;99.90
19908;DHT22;10116;53.112;7.356;2022-08-19T06:29:00;29.80;99.90
19908;DHT22;10116;53.112;7.356;2022-08-19T06:31:27;29.80;99.90
19908;DHT22;10116;53.112;7.356;2022-08-19T06:33:53;29.80;99.90
19908;DHT22;10116;53.112;7.356;2022-08-19T06:36:25;29.80;99.90
19908;DHT22;10116;53.112;7.356;2022-08-19T06:38:55;29.80;99.90
19908;DHT22;10116;53.112;7.356;2022-08-19T06:41:26;29.80;99.90
19908;DHT22;10116;53.112;7.356;2022-08-19T06:43:53;29.80;99.90
19908;DHT22;10116;53.112;7.356;2022-08-19T06:46:19;29.80;99.90
19908;DHT22;10116;53.112;7.356;2022-08-19T06:48:46;29.80;99.90
19908;DHT22;10116;53.112;7.356;2022-08-19T06:51:16;29.70;99.90
19908;DHT22;10116;53.112;7.356;2022-08-19T06:53:50;29.70;99.90
19908;DHT22;10116;53.112;7.356;2022-08-19T06:56:18;29.70;99.90
19908;DHT22;10116;53.112;7.356;2022-08-19T06:58:45;29.70;99.90
19908;DHT22;10116;53.112;7.356;2022-08-19T07:01:12;29.70;99.90
19908;DHT22;10116;53.112;7.356;2022-08-19T07:03:38;29.70;99.90
19908;DHT22;10116;53.112;7.356;2022-08-19T07:06:09;29.80;99.90
19908;DHT22;10116;53.112;7.356;2022-08-19T07:08:36;29.80;99.90
19908;DHT22;10116;53.112;7.356;2022-08-19T07:11:05;29.90;99.90
19908;DHT22;10116;53.112;7.356;2022-08-19T07:13:33;29.90;99.90
19908;DHT22;10116;53.112;7.356;2022-08-19T07:16:14;29.90;99.90
19908;DHT22;10116;53.112;7.356;2022-08-19T07:18:40;29.90;99.90
19908;DHT22;10116;53.112;7.356;2022-08-19T07:23:33;29.90;99.90
19908;DHT22;10116;53.112;7.356;2022-08-19T07:26:12;30.00;99.90
19908;DHT22;10116;53.112;7.356;2022-08-19T07:28:38;30.00;99.90
19908;DHT22;10116;53.112;7.356;2022-08-19T07:31:16;29.90;99.90
19908;DHT22;10116;53.112;7.356;2022-08-19T07:33:44;29.90;99.90
19908;DHT22;10116;53.112;7.356;2022-08-19T07:36:12;29.90;99.90
19908;DHT22;10116;53.112;7.356;2022-08-19T07:38:41;29.90;99.90
19908;DHT22;10116;53.112;7.356;2022-08-19T07:41:10;29.90;99.90
19908;DHT22;10116;53.112;7.356;2022-08-19T07:43:36;29.90;99.90
19908;DHT22;10116;53.112;7.356;2022-08-19T07:46:02;29.80;99.90
19908;DHT22;10116;53.112;7.356;2022-08-19T07:48:28;29.80;99.90
19908;DHT22;10116;53.112;7.356;2022-08-19T07:50:56;29.80;99.90
19908;DHT22;10116;53.112;7.356;2022-08-19T07:53:23;29.80;99.90
19908;DHT22;10116;53.112;7.356;2022-08-19T07:55:50;29.80;99.90
19908;DHT22;10116;53.112;7.356;2022-08-19T07:58:18;29.80;99.90
19908;DHT22;10116;53.112;7.356;2022-08-19T08:00:46;29.70;99.90
19908;DHT22;10116;53.112;7.356;2022-08-19T08:03:13;29.70;99.90
19908;DHT22;10116;53.112;7.356;2022-08-19T08:05:39;29.80;99.90
19908;DHT22;10116;53.112;7.356;2022-08-19T08:08:23;29.70;99.90
19908;DHT22;10116;53.112;7.356;2022-08-19T08:11:08;29.70;99.90
19908;DHT22;10116;53.112;7.356;2022-08-19T08:13:34;29.70;99.90
19908;DHT22;10116;53.112;7.356;2022-08-19T08:16:01;29.60;99.90
19908;DHT22;10116;53.112;7.356;2022-08-19T08:18:27;29.60;99.90
19908;DHT22;10116;53.112;7.356;2022-08-19T08:20:52;29.60;99.90
19908;DHT22;10116;53.112;7.356;2022-08-19T08:23:18;29.70;99.90
19908;DHT22;10116;53.112;7.356;2022-08-19T08:25:47;29.70;99.90
19908;DHT22;10116;53.112;7.356;2022-08-19T08:28:14;29.60;99.90
19908;DHT22;10116;53.112;7.356;2022-08-19T08:30:40;29.70;99.90
19908;DHT22;10116;53.112;7.356;2022-08-19T08:33:07;29.60;99.90
19908;DHT22;10116;53.112;7.356;2022-08-19T08:35:33;29.60;99.90
19908;DHT22;10116;53.112;7.356;2022-08-19T08:37:59;29.60;99.90
19908;DHT22;10116;53.112;7.356;2022-08-19T08:40:53;29.60;99.90
19908;DHT22;10116;53.112;7.356;2022-08-19T08:43:30;29.70;99.90
19908;DHT22;10116;53.112;7.356;2022-08-19T08:46:07;29.70;99.90
19908;DHT22;10116;53.112;7.356;2022-08-19T08:51:45;29.60;99.90
19908;DHT22;10116;53.112;7.356;2022-08-19T08:54:16;29.60;99.90
19908;DHT22;10116;53.112;7.356;2022-08-19T08:56:44;29.60;99.90
19908;DHT22;10116;53.112;7.356;2022-08-19T08:59:33;29.60;99.90
19908;DHT22;10116;53.112;7.356;2022-08-19T09:02:00;29.60;99.90
19908;DHT22;10116;53.112;7.356;2022-08-19T09:04:26;29.60;99.90
19908;DHT22;10116;53.112;7.356;2022-08-19T09:07:17;29.60;99.90
19908;DHT22;10116;53.112;7.356;2022-08-19T09:09:49;29.60;99.90
19908;DHT22;10116;53.112;7.356;2022-08-19T09:15:09;29.60;99.90
19908;DHT22;10116;53.112;7.356;2022-08-19T09:17:36;29.60;99.90
19908;DHT22;10116;53.112;7.356;2022-08-19T09:20:20;29.60;99.90
19908;DHT22;10116;53.112;7.356;2022-08-19T09:22:46;29.60;99.90
19908;DHT22;10116;53.112;7.356;2022-08-19T09:25:17;29.60;99.90
19908;DHT22;10116;53.112;7.356;2022-08-19T09:27:43;29.60;99.90
19908;DHT22;10116;53.112;7.356;2022-08-19T09:30:33;29.60;99.90
19908;DHT22;10116;53.112;7.356;2022-08-19T09:32:59;29.60;99.90
19908;DHT22;10116;53.112;7.356;2022-08-19T09:35:27;29.60;99.90
19908;DHT22;10116;53.112;7.356;2022-08-19T09:37:55;29.60;99.90
19908;DHT22;10116;53.112;7.356;2022-08-19T09:40:22;29.60;99.90
19908;DHT22;10116;53.112;7.356;2022-08-19T09:42:48;29.60;99.90
19908;DHT22;10116;53.112;7.356;2022-08-19T09:45:19;29.60;99.90
19908;DHT22;10116;53.112;7.356;2022-08-19T09:47:51;29.60;99.90
19908;DHT22;10116;53.112;7.356;2022-08-19T09:50:18;29.60;99.90
19908;DHT22;10116;53.112;7.356;2022-08-19T09:52:44;29.70;99.90
19908;DHT22;10116;53.112;7.356;2022-08-19T09:55:10;29.70;99.90
19908;DHT22;10116;53.112;7.356;2022-08-19T09:57:36;29.60;99.90
19908;DHT22;10116;53.112;7.356;2022-08-19T10:00:06;29.70;99.90
19908;DHT22;10116;53.112;7.356;2022-08-19T10:02:33;29.70;99.90
19908;DHT22;10116;53.112;7.356;2022-08-19T10:04:58;29.70;99.90
19908;DHT22;10116;53.112;7.356;2022-08-19T10:07:42;29.70;99.90
19908;DHT22;10116;53.112;7.356;2022-08-19T10:10:08;29.80;99.90
19908;DHT22;10116;53.112;7.356;2022-08-19T10:12:34;29.80;99.90
19908;DHT22;10116;53.112;7.356;2022-08-19T10:15:01;29.90;99.90
19908;DHT22;10116;53.112;7.356;2022-08-19T10:17:27;30.00;99.90
19908;DHT22;10116;53.112;7.356;2022-08-19T10:19:52;30.10;99.90
19908;DHT22;10116;53.112;7.356;2022-08-19T10:22:18;30.10;99.90
19908;DHT22;10116;53.112;7.356;2022-08-19T10:24:46;30.20;99.90
19908;DHT22;10116;53.112;7.356;2022-08-19T10:27:12;30.20;99.90
19908;DHT22;10116;53.112;7.356;2022-08-19T10:29:39;30.20;99.90
19908;DHT22;10116;53.112;7.356;2022-08-19T10:32:06;30.30;99.90
19908;DHT22;10116;53.112;7.356;2022-08-19T10:34:34;30.30;99.90
19908;DHT22;10116;53.112;7.356;2022-08-19T10:37:03;30.30;99.90
19908;DHT22;10116;53.112;7.356;2022-08-19T10:39:32;30.30;99.90
19908;DHT22;10116;53.112;7.356;2022-08-19T10:41:58;30.30;99.90
19908;DHT22;10116;53.112;7.356;2022-08-19T10:44:24;30.40;99.90
19908;DHT22;10116;53.112;7.356;2022-08-19T10:46:50;30.40;99.90
19908;DHT22;10116;53.112;7.356;2022-08-19T10:49:16;30.40;99.90
19908;DHT22;10116;53.112;7.356;2022-08-19T10:51:44;30.40;99.90
19908;DHT22;10116;53.112;7.356;2022-08-19T10:54:48;30.40;99.90
19908;DHT22;10116;53.112;7.356;2022-08-19T10:57:32;30.40;99.90
19908;DHT22;10116;53.112;7.356;2022-08-19T10:59:57;30.40;99.90
19908;DHT22;10116;53.112;7.356;2022-08-19T11:02:23;30.40;99.90
19908;DHT22;10116;53.112;7.356;2022-08-19T11:04:49;30.40;99.90
19908;DHT22;10116;53.112;7.356;2022-08-19T11:07:16;30.40;99.90
19908;DHT22;10116;53.112;7.356;2022-08-19T11:09:42;30.40;99.90
19908;DHT22;10116;53.112;7.356;2022-08-19T11:12:09;30.40;99.90
19908;DHT22;10116;53.112;7.356;2022-08-19T11:14:35;30.40;99.90
19908;DHT22;10116;53.112;7.356;2022-08-19T11:17:03;30.50;99.90
19908;DHT22;10116;53.112;7.356;2022-08-19T11:19:29;30.50;99.90
19908;DHT22;10116;53.112;7.356;2022-08-19T11:21:55;30.50;99.90
19908;DHT22;10116;53.112;7.356;2022-08-19T11:24:23;30.50;99.90
19908;DHT22;10116;53.112;7.356;2022-08-19T11:26:51;30.50;99.90
19908;DHT22;10116;53.112;7.356;2022-08-19T11:29:19;30.50;99.90
19908;DHT22;10116;53.112;7.356;2022-08-19T11:31:47;30.50;99.90
19908;DHT22;10116;53.112;7.356;2022-08-19T11:34:24;30.50;99.90
19908;DHT22;10116;53.112;7.356;2022-08-19T11:36:51;30.50;99.90
19908;DHT22;10116;53.112;7.356;2022-08-19T11:39:20;30.50;99.90
19908;DHT22;10116;53.112;7.356;2022-08-19T11:41:46;30.50;99.90
19908;DHT22;10116;53.112;7.356;2022-08-19T11:44:11;30.50;99.90
19908;DHT22;10116;53.112;7.356;2022-08-19T11:46:39;30.40;99.90
19908;DHT22;10116;53.112;7.356;2022-08-19T11:49:06;30.40;99.90
19908;DHT22;10116;53.112;7.356;2022-08-19T11:51:34;30.40;99.90
19908;DHT22;10116;53.112;7.356;2022-08-19T11:54:01;30.40;99.90
19908;DHT22;10116;53.112;7.356;2022-08-19T11:56:27;30.40;99.90
19908;DHT22;10116;53.112;7.356;2022-08-19T11:58:54;30.40;99.90
19908;DHT22;10116;53.112;7.356;2022-08-19T12:01:22;30.40;99.90
19908;DHT22;10116;53.112;7.356;2022-08-19T12:03:50;30.40;99.90
19908;DHT22;10116;53.112;7.356;2022-08-19T12:06:19;30.50;99.90
19908;DHT22;10116;53.112;7.356;2022-08-19T12:08:45;30.60;99.90
19908;DHT22;10116;53.112;7.356;2022-08-19T12:11:13;30.60;99.90
19908;DHT22;10116;53.112;7.356;2022-08-19T12:13:39;30.60;99.90
19908;DHT22;10116;53.112;7.356;2022-08-19T12:16:09;30.70;99.90
19908;DHT22;10116;53.112;7.356;2022-08-19T12:18:37;30.70;99.90
19908;DHT22;10116;53.112;7.356;2022-08-19T12:21:03;30.70;99.90
19908;DHT22;10116;53.112;7.356;2022-08-19T12:23:29;30.70;99.90
19908;DHT22;10116;53.112;7.356;2022-08-19T12:25:54;30.70;99.90
19908;DHT22;10116;53.112;7.356;2022-08-19T12:28:23;30.70;99.90
19908;DHT22;10116;53.112;7.356;2022-08-19T12:30:50;30.70;99.90
19908;DHT22;10116;53.112;7.356;2022-08-19T12:33:19;30.70;99.90
19908;DHT22;10116;53.112;7.356;2022-08-19T12:35:49;30.70;99.90
19908;DHT22;10116;53.112;7.356;2022-08-19T12:38:15;30.70;99.90
19908;DHT22;10116;53.112;7.356;2022-08-19T12:40:41;30.70;99.90
19908;DHT22;10116;53.112;7.356;2022-08-19T12:43:10;30.70;99.90
19908;DHT22;10116;53.112;7.356;2022-08-19T12:45:37;30.70;99.90
19908;DHT22;10116;53.112;7.356;2022-08-19T12:48:03;30.70;99.90
19908;DHT22;10116;53.112;7.356;2022-08-19T12:50:30;30.70;99.90
19908;DHT22;10116;53.112;7.356;2022-08-19T12:52:56;30.80;99.90
19908;DHT22;10116;53.112;7.356;2022-08-19T12:55:23;30.70;99.90
19908;DHT22;10116;53.112;7.356;2022-08-19T12:57:49;30.70;99.90
19908;DHT22;10116;53.112;7.356;2022-08-19T13:00:18;30.70;99.90
19908;DHT22;10116;53.112;7.356;2022-08-19T13:02:49;30.70;99.90
19908;DHT22;10116;53.112;7.356;2022-08-19T13:05:21;30.70;99.90
19908;DHT22;10116;53.112;7.356;2022-08-19T13:07:49;30.60;99.90
19908;DHT22;10116;53.112;7.356;2022-08-19T13:10:18;30.60;99.90
19908;DHT22;10116;53.112;7.356;2022-08-19T13:12:46;30.60;99.90
19908;DHT22;10116;53.112;7.356;2022-08-19T13:15:14;30.60;99.90
19908;DHT22;10116;53.112;7.356;2022-08-19T13:17:40;30.70;99.90
19908;DHT22;10116;53.112;7.356;2022-08-19T13:20:10;30.70;99.90
19908;DHT22;10116;53.112;7.356;2022-08-19T13:22:36;30.70;99.90
19908;DHT22;10116;53.112;7.356;2022-08-19T13:25:03;30.70;99.90
19908;DHT22;10116;53.112;7.356;2022-08-19T13:27:29;30.70;99.90
19908;DHT22;10116;53.112;7.356;2022-08-19T13:29:55;30.70;99.90
19908;DHT22;10116;53.112;7.356;2022-08-19T13:32:39;30.70;99.90
19908;DHT22;10116;53.112;7.356;2022-08-19T13:35:23;30.70;99.90
19908;DHT22;10116;53.112;7.356;2022-08-19T13:37:48;30.70;99.90
19908;DHT22;10116;53.112;7.356;2022-08-19T13:40:17;30.70;99.90
19908;DHT22;10116;53.112;7.356;2022-08-19T13:42:49;30.70;99.90
19908;DHT22;10116;53.112;7.356;2022-08-19T13:45:17;30.70;99.90
19908;DHT22;10116;53.112;7.356;2022-08-19T13:47:45;30.70;99.90
19908;DHT22;10116;53.112;7.356;2022-08-19T13:50:17;30.70;99.90
19908;DHT22;10116;53.112;7.356;2022-08-19T13:52:43;30.70;99.90
19908;DHT22;10116;53.112;7.356;2022-08-19T13:55:11;30.60;99.90
19908;DHT22;10116;53.112;7.356;2022-08-19T13:57:37;30.60;99.90
19908;DHT22;10116;53.112;7.356;2022-08-19T14:00:10;30.60;99.90
19908;DHT22;10116;53.112;7.356;2022-08-19T14:02:37;30.60;99.90
19908;DHT22;10116;53.112;7.356;2022-08-19T14:05:06;30.60;99.90
19908;DHT22;10116;53.112;7.356;2022-08-19T14:07:32;30.60;99.90
19908;DHT22;10116;53.112;7.356;2022-08-19T14:09:58;30.60;99.90
19908;DHT22;10116;53.112;7.356;2022-08-19T14:12:23;30.60;99.90
19908;DHT22;10116;53.112;7.356;2022-08-19T14:14:49;30.60;99.90
19908;DHT22;10116;53.112;7.356;2022-08-19T14:17:15;30.60;99.90
19908;DHT22;10116;53.112;7.356;2022-08-19T14:19:41;30.60;99.90
19908;DHT22;10116;53.112;7.356;2022-08-19T14:22:07;30.60;99.90
19908;DHT22;10116;53.112;7.356;2022-08-19T14:24:33;30.50;99.90
19908;DHT22;10116;53.112;7.356;2022-08-19T14:26:59;30.60;99.90
19908;DHT22;10116;53.112;7.356;2022-08-19T14:29:25;30.60;99.90
19908;DHT22;10116;53.112;7.356;2022-08-19T14:31:54;30.60;99.90
19908;DHT22;10116;53.112;7.356;2022-08-19T14:34:19;30.70;99.90
19908;DHT22;10116;53.112;7.356;2022-08-19T14:36:45;30.70;99.90
19908;DHT22;10116;53.112;7.356;2022-08-19T14:39:11;30.70;99.90
19908;DHT22;10116;53.112;7.356;2022-08-19T14:41:40;30.80;99.90
19908;DHT22;10116;53.112;7.356;2022-08-19T14:44:06;30.80;99.90
19908;DHT22;10116;53.112;7.356;2022-08-19T14:46:31;30.80;99.90
19908;DHT22;10116;53.112;7.356;2022-08-19T14:48:57;30.80;99.90
19908;DHT22;10116;53.112;7.356;2022-08-19T14:51:24;30.80;99.90
19908;DHT22;10116;53.112;7.356;2022-08-19T14:53:52;30.80;99.90
19908;DHT22;10116;53.112;7.356;2022-08-19T14:56:21;30.80;99.90
19908;DHT22;10116;53.112;7.356;2022-08-19T14:58:48;30.90;99.90
19908;DHT22;10116;53.112;7.356;2022-08-19T15:01:16;30.90;99.90
19908;DHT22;10116;53.112;7.356;2022-08-19T15:03:42;30.90;99.90
19908;DHT22;10116;53.112;7.356;2022-08-19T15:06:08;30.90;99.90
19908;DHT22;10116;53.112;7.356;2022-08-19T15:08:35;30.90;99.90
19908;DHT22;10116;53.112;7.356;2022-08-19T15:11:02;30.90;99.90
19908;DHT22;10116;53.112;7.356;2022-08-19T15:13:29;30.80;99.90
19908;DHT22;10116;53.112;7.356;2022-08-19T15:15:55;30.80;99.90
19908;DHT22;10116;53.112;7.356;2022-08-19T15:18:22;30.80;99.90
19908;DHT22;10116;53.112;7.356;2022-08-19T15:20:48;30.80;99.90
19908;DHT22;10116;53.112;7.356;2022-08-19T15:23:15;30.80;99.90
19908;DHT22;10116;53.112;7.356;2022-08-19T15:25:42;30.80;99.90
19908;DHT22;10116;53.112;7.356;2022-08-19T15:28:09;30.80;99.90
19908;DHT22;10116;53.112;7.356;2022-08-19T15:30:39;30.80;99.90
19908;DHT22;10116;53.112;7.356;2022-08-19T15:33:05;30.80;99.90
19908;DHT22;10116;53.112;7.356;2022-08-19T15:35:31;30.80;99.90
19908;DHT22;10116;53.112;7.356;2022-08-19T15:37:57;30.70;99.90
19908;DHT22;10116;53.112;7.356;2022-08-19T15:40:24;30.70;99.90
19908;DHT22;10116;53.112;7.356;2022-08-19T15:42:51;30.70;99.90
19908;DHT22;10116;53.112;7.356;2022-08-19T15:45:19;30.70;99.90